createdAt,value
2023-05-14T00:00:04.180Z,7.60
2023-05-14T00:02:30.951Z,8.43
2023-05-14T00:04:57.568Z,8.03
2023-05-14T00:07:30.752Z,8.37
2023-05-14T00:09:58.609Z,8.10
2023-05-14T00:12:26.383Z,8.23
2023-05-14T00:14:53.740Z,7.80
2023-05-14T00:17:20.442Z,8.00
2023-05-14T00:19:46.928Z,7.53
2023-05-14T00:22:13.601Z,7.73
2023-05-14T00:24:40.091Z,7.67
2023-05-14T00:27:07.343Z,8.17
2023-05-14T00:29:34.213Z,7.83
2023-05-14T00:32:00.817Z,7.67
2023-05-14T00:34:27.381Z,7.97
2023-05-14T00:36:53.936Z,8.17
2023-05-14T00:39:20.584Z,8.23
2023-05-14T00:41:47.165Z,8.30
2023-05-14T00:44:13.706Z,8.10
2023-05-14T00:46:40.635Z,8.00
2023-05-14T00:49:07.282Z,8.77
2023-05-14T00:51:33.828Z,8.13
2023-05-14T00:54:00.792Z,7.77
2023-05-14T00:56:27.987Z,8.57
2023-05-14T00:58:54.617Z,8.90
2023-05-14T01:01:21.382Z,8.57
2023-05-14T01:03:49.043Z,7.77
2023-05-14T01:06:18.318Z,8.50
2023-05-14T01:08:53.773Z,8.93
2023-05-14T01:11:29.376Z,8.43
2023-05-14T01:14:21.278Z,8.53
2023-05-14T01:16:51.073Z,8.60
2023-05-14T01:19:41.480Z,7.70
2023-05-14T01:22:08.444Z,7.50
2023-05-14T01:24:35.063Z,7.63
2023-05-14T01:27:18.355Z,7.50
2023-05-14T01:29:52.866Z,8.10
2023-05-14T01:32:23.287Z,7.83
2023-05-14T01:34:51.033Z,7.80
2023-05-14T01:37:18.388Z,7.30
2023-05-14T01:39:45.833Z,6.80
2023-05-14T01:42:13.297Z,7.70
2023-05-14T01:44:39.974Z,7.47
2023-05-14T01:47:06.614Z,7.80
2023-05-14T01:49:33.230Z,9.10
2023-05-14T01:51:59.821Z,7.90
2023-05-14T01:54:26.401Z,7.50
2023-05-14T01:56:53.155Z,8.13
2023-05-14T01:59:19.806Z,7.47
2023-05-14T02:01:46.362Z,7.73
2023-05-14T02:04:13.027Z,8.23
2023-05-14T02:06:39.683Z,8.77
2023-05-14T02:09:06.362Z,7.87
2023-05-14T02:11:33.012Z,7.07
2023-05-14T02:13:59.596Z,7.43
2023-05-14T02:16:26.259Z,6.70
2023-05-14T02:18:52.985Z,7.40
2023-05-14T02:21:19.597Z,7.40
2023-05-14T02:23:46.144Z,7.47
2023-05-14T02:26:12.800Z,7.70
2023-05-14T02:28:39.426Z,7.33
2023-05-14T02:31:06.162Z,7.60
2023-05-14T02:33:32.879Z,6.27
2023-05-14T02:35:59.548Z,7.07
2023-05-14T02:38:26.520Z,7.13
2023-05-14T02:40:53.263Z,7.23
2023-05-14T02:43:19.823Z,6.93
2023-05-14T02:45:46.443Z,7.23
2023-05-14T02:48:13.165Z,6.97
2023-05-14T02:50:39.819Z,6.80
2023-05-14T02:53:06.420Z,6.43
2023-05-14T02:55:32.935Z,7.10
2023-05-14T02:57:59.568Z,6.23
2023-05-14T03:00:26.247Z,7.17
2023-05-14T03:02:53.459Z,6.63
2023-05-14T03:05:20.816Z,7.07
2023-05-14T03:07:47.408Z,7.27
2023-05-14T03:10:13.998Z,6.83
2023-05-14T03:12:40.644Z,6.43
2023-05-14T03:15:07.784Z,6.60
2023-05-14T03:17:34.325Z,6.83
2023-05-14T03:20:00.885Z,7.17
2023-05-14T03:22:27.651Z,6.37
2023-05-14T03:24:54.262Z,7.40
2023-05-14T03:27:21.134Z,6.60
2023-05-14T03:29:47.764Z,6.83
2023-05-14T03:32:15.017Z,7.40
2023-05-14T03:34:41.808Z,7.03
2023-05-14T03:37:08.341Z,6.70
2023-05-14T03:39:35.065Z,7.03
2023-05-14T03:42:01.946Z,7.07
2023-05-14T03:44:28.674Z,7.40
2023-05-14T03:46:55.895Z,6.97
2023-05-14T03:49:22.437Z,6.90
2023-05-14T03:51:48.992Z,7.00
2023-05-14T03:54:15.655Z,6.47
2023-05-14T03:56:42.407Z,7.13
2023-05-14T03:59:09.018Z,6.30
2023-05-14T04:01:35.564Z,5.53
2023-05-14T04:04:02.323Z,6.23
2023-05-14T04:06:29.081Z,6.93
2023-05-14T04:08:55.714Z,5.70
2023-05-14T04:11:22.330Z,5.87
2023-05-14T04:13:48.916Z,5.10
2023-05-14T04:16:15.490Z,5.67
2023-05-14T04:18:42.176Z,5.60
2023-05-14T04:21:08.803Z,5.80
2023-05-14T04:23:35.576Z,6.43
2023-05-14T04:26:02.421Z,5.97
2023-05-14T04:28:29.050Z,5.93
2023-05-14T04:30:55.690Z,6.53
2023-05-14T04:33:22.449Z,6.03
2023-05-14T04:35:49.073Z,6.47
2023-05-14T04:38:15.737Z,5.73
2023-05-14T04:40:42.857Z,6.40
2023-05-14T04:43:09.845Z,6.10
2023-05-14T04:45:36.726Z,6.27
2023-05-14T04:48:04.663Z,6.90
2023-05-14T04:50:31.462Z,6.07
2023-05-14T04:52:58.087Z,6.40
2023-05-14T04:55:24.709Z,6.80
2023-05-14T04:57:51.636Z,6.50
2023-05-14T05:00:19.295Z,7.00
2023-05-14T05:02:45.900Z,6.40
2023-05-14T05:05:12.509Z,7.13
2023-05-14T05:07:39.052Z,6.60
2023-05-14T05:10:06.285Z,6.20
2023-05-14T05:12:32.845Z,7.00
2023-05-14T05:14:59.386Z,6.33
2023-05-14T05:17:26.109Z,6.87
2023-05-14T05:19:52.975Z,7.17
2023-05-14T05:22:20.362Z,6.83
2023-05-14T05:24:49.784Z,7.03
2023-05-14T05:27:16.702Z,7.00
2023-05-14T05:29:44.495Z,7.27
2023-05-14T05:32:11.151Z,43.27
2023-05-14T05:34:37.736Z,9.67
2023-05-14T05:37:06.017Z,10.80
2023-05-14T05:39:34.931Z,8.93
2023-05-14T05:42:02.788Z,8.13
2023-05-14T05:44:29.434Z,8.50
2023-05-14T05:46:57.422Z,9.07
2023-05-14T05:49:24.196Z,8.17
2023-05-14T05:51:50.933Z,7.47
2023-05-14T05:54:17.463Z,7.17
2023-05-14T05:56:43.993Z,7.03
2023-05-14T05:59:10.541Z,6.97
2023-05-14T06:01:37.337Z,7.80
2023-05-14T06:04:06.383Z,6.93
2023-05-14T06:06:33.132Z,7.53
2023-05-14T06:09:01.783Z,6.73
2023-05-14T06:11:28.380Z,6.97
2023-05-14T06:13:54.990Z,7.23
2023-05-14T06:16:21.553Z,7.20
2023-05-14T06:18:48.765Z,7.00
2023-05-14T06:21:15.443Z,7.00
2023-05-14T06:23:42.117Z,7.53
2023-05-14T06:26:08.644Z,7.43
2023-05-14T06:28:35.285Z,6.90
2023-05-14T06:31:01.859Z,7.70
2023-05-14T06:33:31.558Z,8.30
2023-05-14T06:35:59.709Z,8.37
2023-05-14T06:38:26.665Z,8.23
2023-05-14T06:40:53.324Z,8.23
2023-05-14T06:43:19.949Z,7.67
2023-05-14T06:45:50.535Z,7.67
2023-05-14T06:48:21.213Z,7.43
2023-05-14T06:50:49.340Z,7.73
2023-05-14T06:53:16.080Z,8.23
2023-05-14T06:55:42.717Z,8.03
2023-05-14T06:58:09.899Z,7.90
2023-05-14T07:00:36.531Z,8.43
2023-05-14T07:03:03.209Z,7.50
2023-05-14T07:05:29.858Z,7.63
2023-05-14T07:07:56.505Z,7.17
2023-05-14T07:10:23.928Z,7.57
2023-05-14T07:12:50.809Z,7.37
2023-05-14T07:15:17.480Z,6.43
2023-05-14T07:17:44.072Z,6.40
2023-05-14T07:20:11.077Z,6.93
2023-05-14T07:22:37.594Z,6.33
2023-05-14T07:25:04.329Z,6.47
2023-05-14T07:27:30.875Z,6.37
2023-05-14T07:29:57.429Z,6.77
2023-05-14T07:32:25.256Z,6.13
2023-05-14T07:34:51.807Z,5.57
2023-05-14T07:37:18.848Z,6.33
2023-05-14T07:39:45.668Z,5.50
2023-05-14T07:42:19.306Z,5.00
2023-05-14T07:44:51.965Z,5.57
2023-05-14T07:47:18.634Z,5.57
2023-05-14T07:49:45.360Z,5.10
2023-05-14T07:52:12.074Z,5.40
2023-05-14T07:54:38.733Z,5.43
2023-05-14T07:57:05.352Z,4.80
2023-05-14T07:59:32.136Z,5.20
2023-05-14T08:01:58.659Z,5.20
2023-05-14T08:04:25.378Z,4.53
2023-05-14T08:06:52.015Z,4.53
2023-05-14T08:09:18.580Z,4.40
2023-05-14T08:11:45.138Z,4.07
2023-05-14T08:14:11.955Z,3.90
2023-05-14T08:16:38.961Z,4.47
2023-05-14T08:19:05.793Z,3.97
2023-05-14T08:21:32.834Z,4.03
2023-05-14T08:23:59.701Z,4.80
2023-05-14T08:26:26.504Z,6.97
2023-05-14T08:28:54.421Z,3.23
2023-05-14T08:31:21.119Z,3.23
2023-05-14T08:33:47.695Z,3.60
2023-05-14T08:36:14.243Z,3.80
2023-05-14T08:38:42.224Z,3.37
2023-05-14T08:41:11.660Z,3.57
2023-05-14T08:44:03.730Z,3.30
2023-05-14T08:46:31.874Z,3.37
2023-05-14T08:49:11.668Z,3.03
2023-05-14T08:51:38.664Z,3.20
2023-05-14T08:54:05.968Z,2.93
2023-05-14T08:56:33.528Z,3.07
2023-05-14T08:59:00.578Z,3.30
2023-05-14T09:01:28.021Z,3.20
2023-05-14T09:03:55.041Z,3.10
2023-05-14T09:06:22.586Z,3.60
2023-05-14T09:08:49.334Z,3.20
2023-05-14T09:11:15.842Z,3.47
2023-05-14T09:13:43.125Z,3.40
2023-05-14T09:16:09.891Z,3.70
2023-05-14T09:18:37.074Z,3.20
2023-05-14T09:21:04.498Z,3.33
2023-05-14T09:23:34.646Z,3.57
2023-05-14T09:26:05.612Z,2.97
2023-05-14T09:28:32.188Z,2.83
2023-05-14T09:30:58.682Z,3.43
2023-05-14T09:33:29.445Z,3.03
2023-05-14T09:36:00.651Z,2.40
2023-05-14T09:38:33.892Z,3.33
2023-05-14T09:41:00.954Z,3.23
2023-05-14T09:43:27.720Z,3.70
2023-05-14T09:45:54.262Z,3.37
2023-05-14T09:48:22.392Z,3.67
2023-05-14T09:50:49.166Z,3.43
2023-05-14T09:53:15.848Z,3.63
2023-05-14T09:55:42.473Z,3.50
2023-05-14T09:58:09.085Z,3.30
2023-05-14T10:00:36.372Z,3.93
2023-05-14T10:03:06.904Z,3.80
2023-05-14T10:05:37.343Z,3.47
2023-05-14T10:08:12.351Z,3.20
2023-05-14T10:10:39.407Z,3.70
2023-05-14T10:13:13.673Z,3.97
2023-05-14T10:15:42.405Z,3.67
2023-05-14T10:18:16.284Z,3.43
2023-05-14T10:20:44.699Z,3.03
2023-05-14T10:23:11.655Z,2.43
2023-05-14T10:25:39.110Z,3.10
2023-05-14T10:28:06.287Z,3.10
2023-05-14T10:30:33.038Z,3.20
2023-05-14T10:33:09.993Z,2.90
2023-05-14T10:35:59.699Z,2.90
2023-05-14T10:38:32.028Z,3.40
2023-05-14T10:41:12.009Z,3.20
2023-05-14T10:43:40.775Z,2.87
2023-05-14T10:46:08.881Z,2.80
2023-05-14T10:48:37.120Z,2.73
2023-05-14T10:51:03.842Z,2.67
2023-05-14T10:53:39.535Z,2.90
2023-05-14T10:56:10.065Z,2.90
2023-05-14T10:58:42.415Z,4.30
2023-05-14T11:01:11.262Z,3.20
2023-05-14T11:03:43.245Z,3.10
2023-05-14T11:06:11.648Z,2.83
2023-05-14T11:08:39.126Z,2.97
2023-05-14T11:11:06.928Z,2.93
2023-05-14T11:13:34.692Z,2.67
2023-05-14T11:16:15.136Z,2.60
2023-05-14T11:18:48.157Z,3.33
2023-05-14T11:21:14.792Z,2.43
2023-05-14T11:23:41.315Z,2.20
2023-05-14T11:26:07.963Z,2.60
2023-05-14T11:28:34.561Z,2.10
2023-05-14T11:31:01.396Z,1.97
2023-05-14T11:33:28.410Z,1.90
2023-05-14T11:35:54.941Z,2.00
2023-05-14T11:38:21.601Z,2.00
2023-05-14T11:40:58.721Z,1.67
2023-05-14T11:43:29.385Z,1.70
2023-05-14T11:45:56.639Z,1.90
2023-05-14T11:48:24.031Z,1.93
2023-05-14T11:50:52.941Z,1.90
2023-05-14T11:53:28.227Z,1.80
2023-05-14T11:55:55.193Z,1.67
2023-05-14T11:58:22.137Z,1.60
2023-05-14T12:00:53.529Z,1.80
2023-05-14T12:03:26.266Z,2.10
2023-05-14T12:05:59.498Z,2.07
2023-05-14T12:08:28.205Z,1.80
2023-05-14T12:10:55.143Z,2.20
2023-05-14T12:13:22.826Z,2.03
2023-05-14T12:15:56.222Z,2.10
2023-05-14T12:18:27.063Z,1.93
2023-05-14T12:20:53.795Z,1.70
2023-05-14T12:23:27.794Z,1.67
2023-05-14T12:25:54.525Z,1.50
2023-05-14T12:28:23.236Z,1.60
2023-05-14T12:30:56.483Z,1.60
2023-05-14T12:33:23.899Z,1.40
2023-05-14T12:35:50.496Z,1.50
2023-05-14T12:38:17.123Z,1.70
2023-05-14T12:40:43.673Z,1.63
2023-05-14T12:43:10.370Z,1.23
2023-05-14T12:45:37.174Z,1.30
2023-05-14T12:48:03.896Z,1.50
2023-05-14T12:50:30.559Z,1.50
2023-05-14T12:52:58.120Z,1.87
2023-05-14T12:55:24.764Z,1.80
2023-05-14T12:57:51.337Z,1.80
2023-05-14T13:00:18.211Z,1.80
2023-05-14T13:02:45.026Z,2.13
2023-05-14T13:05:12.513Z,1.90
2023-05-14T13:07:39.284Z,1.80
2023-05-14T13:10:06.843Z,1.50
2023-05-14T13:12:33.482Z,1.40
2023-05-14T13:15:00.088Z,1.50
2023-05-14T13:17:26.778Z,1.57
2023-05-14T13:19:53.556Z,1.30
2023-05-14T13:22:20.206Z,1.40
2023-05-14T13:24:46.949Z,1.43
2023-05-14T13:27:13.446Z,1.50
2023-05-14T13:29:40.036Z,1.10
2023-05-14T13:32:07.787Z,1.33
2023-05-14T13:34:34.464Z,1.37
2023-05-14T13:37:01.280Z,1.53
2023-05-14T13:39:27.934Z,1.40
2023-05-14T13:41:56.827Z,1.60
2023-05-14T13:44:23.818Z,3.00
2023-05-14T13:46:50.724Z,1.90
2023-05-14T13:49:17.471Z,1.80
2023-05-14T13:51:44.245Z,1.50
2023-05-14T13:54:10.955Z,1.80
2023-05-14T13:56:37.709Z,1.60
2023-05-14T13:59:04.384Z,1.77
2023-05-14T14:01:31.777Z,1.60
2023-05-14T14:03:58.523Z,1.80
2023-05-14T14:06:27.572Z,1.57
2023-05-14T14:08:54.217Z,1.90
2023-05-14T14:11:20.995Z,1.83
2023-05-14T14:13:47.589Z,1.80
2023-05-14T14:16:14.242Z,2.20
2023-05-14T14:18:41.423Z,2.00
2023-05-14T14:21:08.011Z,2.23
2023-05-14T14:23:34.568Z,2.10
2023-05-14T14:26:01.314Z,2.10
2023-05-14T14:28:27.957Z,2.10
2023-05-14T14:30:54.606Z,2.00
2023-05-14T14:33:21.244Z,2.00
2023-05-14T14:35:48.047Z,1.90
2023-05-14T14:38:14.639Z,2.03
2023-05-14T14:40:41.282Z,2.00
2023-05-14T14:43:07.858Z,1.90
2023-05-14T14:45:34.745Z,1.80
2023-05-14T14:48:27.483Z,2.10
2023-05-14T14:50:55.476Z,2.00
2023-05-14T14:53:22.963Z,2.00
2023-05-14T14:55:50.206Z,1.90
2023-05-14T14:58:18.735Z,1.80
2023-05-14T15:00:45.810Z,1.87
2023-05-14T15:03:12.576Z,1.80
2023-05-14T15:05:39.303Z,11.73
2023-05-14T15:08:06.068Z,2.33
2023-05-14T15:10:32.952Z,1.90
2023-05-14T15:12:59.997Z,1.75
2023-05-14T15:15:26.941Z,2.17
2023-05-14T15:17:53.703Z,1.98
2023-05-14T15:20:20.361Z,2.00
2023-05-14T15:22:47.214Z,2.13
2023-05-14T15:25:13.912Z,2.00
2023-05-14T15:27:40.534Z,1.70
2023-05-14T15:30:08.238Z,1.60
2023-05-14T15:32:34.877Z,1.70
2023-05-14T15:35:01.567Z,1.77
2023-05-14T15:37:28.369Z,1.70
2023-05-14T15:39:55.072Z,2.13
2023-05-14T15:42:21.665Z,2.10
2023-05-14T15:44:48.334Z,3.73
2023-05-14T15:47:14.857Z,2.33
2023-05-14T15:49:41.606Z,2.20
2023-05-14T15:52:08.333Z,2.50
2023-05-14T15:54:34.895Z,2.47
2023-05-14T15:57:01.450Z,2.70
2023-05-14T15:59:28.268Z,3.17
2023-05-14T16:01:54.897Z,3.00
2023-05-14T16:04:21.558Z,3.50
2023-05-14T16:06:48.214Z,3.17
2023-05-14T16:09:14.905Z,2.33
2023-05-14T16:11:41.613Z,2.23
2023-05-14T16:14:08.376Z,2.43
2023-05-14T16:16:36.182Z,2.80
2023-05-14T16:19:03.257Z,3.00
2023-05-14T16:21:29.966Z,2.60
2023-05-14T16:23:56.761Z,2.50
2023-05-14T16:26:23.417Z,2.10
2023-05-14T16:28:49.969Z,2.30
2023-05-14T16:31:16.711Z,1.90
2023-05-14T16:33:43.419Z,2.07
2023-05-14T16:36:10.087Z,2.27
2023-05-14T16:38:41.473Z,2.50
2023-05-14T16:41:14.928Z,1.93
2023-05-14T16:43:41.435Z,2.50
2023-05-14T16:46:08.154Z,2.47
2023-05-14T16:48:34.760Z,2.03
2023-05-14T16:51:01.497Z,2.10
2023-05-14T16:53:28.147Z,2.00
2023-05-14T16:55:54.768Z,2.10
2023-05-14T16:58:21.322Z,2.07
2023-05-14T17:00:47.868Z,2.10
2023-05-14T17:03:14.733Z,1.90
2023-05-14T17:05:41.365Z,1.90
2023-05-14T17:08:08.006Z,1.70
2023-05-14T17:10:35.903Z,1.80
2023-05-14T17:13:02.726Z,1.80
2023-05-14T17:15:29.492Z,1.70
2023-05-14T17:17:56.422Z,1.70
2023-05-14T17:20:23.161Z,1.90
2023-05-14T17:22:49.784Z,2.00
2023-05-14T17:25:16.445Z,2.00
2023-05-14T17:27:43.000Z,2.00
2023-05-14T17:30:10.048Z,2.13
2023-05-14T17:32:36.661Z,2.00
2023-05-14T17:35:03.504Z,1.80
2023-05-14T17:37:30.174Z,2.17
2023-05-14T17:39:56.830Z,2.30
2023-05-14T17:42:23.473Z,2.43
2023-05-14T17:44:50.114Z,2.70
2023-05-14T17:47:16.786Z,3.13
2023-05-14T17:49:43.618Z,3.03
2023-05-14T17:52:10.267Z,2.80
2023-05-14T17:54:37.021Z,3.10
2023-05-14T17:57:03.768Z,3.03
2023-05-14T17:59:30.308Z,3.47
2023-05-14T18:01:56.940Z,4.13
2023-05-14T18:04:23.479Z,3.47
2023-05-14T18:06:50.032Z,3.60
2023-05-14T18:09:16.624Z,3.60
2023-05-14T18:11:43.346Z,3.20
2023-05-14T18:14:10.170Z,3.17
2023-05-14T18:16:37.544Z,3.40
2023-05-14T18:19:04.650Z,2.90
2023-05-14T18:21:31.670Z,2.80
2023-05-14T18:23:58.219Z,3.13
2023-05-14T18:26:24.815Z,3.30
2023-05-14T18:28:51.590Z,3.10
2023-05-14T18:31:18.145Z,3.23
2023-05-14T18:33:44.694Z,2.87
2023-05-14T18:36:11.814Z,6.73
2023-05-14T18:38:38.452Z,3.40
2023-05-14T18:41:05.299Z,3.10
2023-05-14T18:43:32.060Z,3.73
2023-05-14T18:45:59.120Z,3.63
2023-05-14T18:48:26.385Z,3.57
2023-05-14T18:50:52.894Z,3.57
2023-05-14T18:53:19.437Z,3.57
2023-05-14T18:55:46.016Z,3.47
2023-05-14T18:58:12.740Z,4.70
2023-05-14T19:00:39.271Z,11.90
2023-05-14T19:03:06.124Z,7.60
2023-05-14T19:05:32.866Z,3.60
2023-05-14T19:07:59.556Z,3.47
2023-05-14T19:10:26.169Z,2.60
2023-05-14T19:12:52.736Z,2.57
2023-05-14T19:15:19.263Z,2.73
2023-05-14T19:17:45.957Z,3.10
2023-05-14T19:20:12.735Z,2.87
2023-05-14T19:22:39.250Z,3.10
2023-05-14T19:25:07.860Z,2.60
2023-05-14T19:27:37.100Z,2.70
2023-05-14T19:30:04.435Z,4.83
2023-05-14T19:32:30.985Z,6.60
2023-05-14T19:34:57.607Z,4.20
2023-05-14T19:37:24.244Z,3.93
2023-05-14T19:39:50.852Z,2.73
2023-05-14T19:42:17.531Z,2.87
2023-05-14T19:44:44.173Z,2.90
2023-05-14T19:47:10.915Z,3.03
2023-05-14T19:49:37.735Z,2.73
2023-05-14T19:52:04.513Z,2.80
2023-05-14T19:54:31.147Z,2.97
2023-05-14T19:56:57.726Z,2.77
2023-05-14T19:59:24.888Z,2.30
2023-05-14T20:01:51.877Z,2.77
2023-05-14T20:04:19.821Z,3.00
2023-05-14T20:06:47.183Z,3.17
2023-05-14T20:09:14.535Z,3.63
2023-05-14T20:11:41.167Z,2.83
2023-05-14T20:14:07.681Z,3.10
2023-05-14T20:16:34.332Z,3.30
2023-05-14T20:19:00.985Z,2.70
2023-05-14T20:21:27.507Z,3.37
2023-05-14T20:23:54.264Z,3.40
2023-05-14T20:26:21.265Z,2.70
2023-05-14T20:28:47.849Z,2.43
2023-05-14T20:31:14.465Z,2.80
2023-05-14T20:33:41.073Z,2.83
2023-05-14T20:36:07.642Z,2.57
2023-05-14T20:38:35.125Z,2.97
2023-05-14T20:41:01.739Z,3.10
2023-05-14T20:43:28.369Z,3.33
2023-05-14T20:45:57.172Z,2.73
2023-05-14T20:48:23.808Z,7.70
2023-05-14T20:50:50.327Z,2.83
2023-05-14T20:53:16.978Z,2.87
2023-05-14T20:55:44.757Z,2.17
2023-05-14T20:58:11.275Z,1.83
2023-05-14T21:00:38.010Z,1.60
2023-05-14T21:03:04.890Z,1.87
2023-05-14T21:05:32.296Z,1.57
2023-05-14T21:07:58.839Z,1.70
2023-05-14T21:10:25.779Z,2.17
2023-05-14T21:12:52.526Z,1.83
2023-05-14T21:15:19.139Z,2.20
2023-05-14T21:17:45.954Z,2.07
2023-05-14T21:20:15.486Z,2.20
2023-05-14T21:22:42.152Z,2.40
2023-05-14T21:25:09.058Z,9.77
2023-05-14T21:27:35.636Z,4.57
2023-05-14T21:30:02.357Z,2.60
2023-05-14T21:32:29.049Z,2.40
2023-05-14T21:34:56.287Z,2.50
2023-05-14T21:37:22.923Z,2.10
2023-05-14T21:39:49.551Z,2.40
2023-05-14T21:42:16.376Z,2.43
2023-05-14T21:44:42.932Z,2.60
2023-05-14T21:47:09.477Z,3.47
2023-05-14T21:49:36.033Z,3.20
2023-05-14T21:52:03.066Z,3.20
2023-05-14T21:54:29.734Z,3.47
2023-05-14T21:56:56.552Z,3.40
2023-05-14T21:59:23.097Z,3.50
2023-05-14T22:02:06.178Z,3.60
2023-05-14T22:04:33.826Z,3.57
2023-05-14T22:07:00.539Z,3.60
2023-05-14T22:09:27.417Z,3.77
2023-05-14T22:11:53.995Z,3.53
2023-05-14T22:14:20.539Z,3.97
2023-05-14T22:16:47.284Z,3.47
2023-05-14T22:19:16.504Z,3.47
2023-05-14T22:21:43.254Z,3.87
2023-05-14T22:24:09.828Z,4.03
2023-05-14T22:26:36.348Z,4.17
2023-05-14T22:29:02.995Z,3.97
2023-05-14T22:31:30.145Z,3.90
2023-05-14T22:33:56.713Z,3.93
2023-05-14T22:36:23.329Z,4.23
2023-05-14T22:38:49.846Z,4.03
2023-05-14T22:41:17.660Z,4.10
2023-05-14T22:43:44.293Z,3.37
2023-05-14T22:46:10.919Z,3.63
2023-05-14T22:48:37.572Z,4.17
2023-05-14T22:51:04.310Z,3.83
2023-05-14T22:53:30.978Z,3.90
2023-05-14T22:55:57.575Z,4.30
2023-05-14T22:58:24.358Z,3.83
2023-05-14T23:00:50.908Z,4.00
2023-05-14T23:03:17.439Z,4.53
2023-05-14T23:05:43.998Z,4.13
2023-05-14T23:08:10.949Z,3.57
2023-05-14T23:10:37.473Z,3.67
2023-05-14T23:13:04.645Z,3.33
2023-05-14T23:15:31.663Z,3.50
2023-05-14T23:17:58.596Z,3.40
2023-05-14T23:20:25.233Z,3.40
2023-05-14T23:22:52.188Z,3.30
2023-05-14T23:25:18.750Z,4.10
2023-05-14T23:27:45.618Z,4.37
2023-05-14T23:30:12.514Z,3.77
2023-05-14T23:32:39.086Z,3.73
2023-05-14T23:35:05.758Z,3.50
2023-05-14T23:37:33.615Z,3.50
2023-05-14T23:40:00.207Z,3.77
2023-05-14T23:42:26.658Z,4.10
2023-05-14T23:44:53.105Z,3.60
2023-05-14T23:47:19.697Z,4.33
2023-05-14T23:49:46.188Z,3.70
2023-05-14T23:52:12.753Z,4.03
2023-05-14T23:54:39.378Z,3.83
2023-05-14T23:57:06.128Z,3.90
2023-05-14T23:59:32.694Z,3.67
